createdAt,value
2019-05-14T00:00:48.971Z,7.88
2019-05-14T00:05:51.685Z,7.85
2019-05-14T00:10:53.471Z,7.77
2019-05-14T00:15:55.016Z,7.71
2019-05-14T00:20:56.393Z,7.62
2019-05-14T00:25:57.905Z,7.56
2019-05-14T00:30:59.425Z,7.49
2019-05-14T00:36:02.074Z,7.41
2019-05-14T00:41:03.754Z,7.36
2019-05-14T00:46:05.220Z,7.33
2019-05-14T00:51:06.760Z,7.32
2019-05-14T00:56:08.247Z,7.29
2019-05-14T01:01:11.800Z,7.25
2019-05-14T01:06:13.470Z,7.24
2019-05-14T01:11:15.051Z,7.20
2019-05-14T01:16:16.441Z,7.15
2019-05-14T01:21:17.877Z,7.09
2019-05-14T01:26:21.582Z,7.00
2019-05-14T01:31:22.717Z,6.91
2019-05-14T01:36:24.144Z,6.81
2019-05-14T01:41:25.688Z,6.77
2019-05-14T01:46:27.253Z,6.71
2019-05-14T01:51:28.756Z,6.66
2019-05-14T01:56:31.910Z,6.57
2019-05-14T02:01:33.609Z,6.46
2019-05-14T02:06:35.105Z,6.36
2019-05-14T02:11:36.666Z,6.33
2019-05-14T02:16:38.168Z,6.27
2019-05-14T02:21:42.300Z,6.21
2019-05-14T02:26:43.156Z,6.15
2019-05-14T02:31:44.642Z,6.08
2019-05-14T02:36:49.411Z,6.02
2019-05-14T02:41:50.030Z,5.94
2019-05-14T02:46:51.783Z,5.88
2019-05-14T02:51:53.249Z,5.85
2019-05-14T02:56:54.791Z,5.81
2019-05-14T03:01:58.866Z,5.78
2019-05-14T03:06:59.521Z,5.75
2019-05-14T03:12:00.968Z,5.71
2019-05-14T03:17:02.461Z,5.64
2019-05-14T03:22:03.986Z,5.60
2019-05-14T03:27:05.408Z,5.58
2019-05-14T03:32:11.974Z,5.57
2019-05-14T03:37:12.741Z,5.55
2019-05-14T03:42:13.676Z,5.54
2019-05-14T03:47:15.250Z,5.53
2019-05-14T03:52:19.642Z,5.47
2019-05-14T03:57:20.411Z,5.45
2019-05-14T04:02:24.854Z,5.45
2019-05-14T04:07:26.360Z,5.49
2019-05-14T04:12:29.430Z,5.60
2019-05-14T04:17:36.899Z,5.47
2019-05-14T04:22:34.616Z,5.47
2019-05-14T04:27:40.038Z,5.51
2019-05-14T04:32:42.177Z,5.55
2019-05-14T04:37:43.823Z,5.57
2019-05-14T04:42:45.384Z,5.59
2019-05-14T04:47:49.803Z,5.65
2019-05-14T04:52:50.475Z,5.71
2019-05-14T04:57:52.088Z,5.82
2019-05-14T05:02:53.721Z,6.01
2019-05-14T05:07:55.375Z,6.22
2019-05-14T05:12:58.604Z,6.41
2019-05-14T05:18:00.209Z,6.52
2019-05-14T05:23:01.702Z,6.55
2019-05-14T05:28:03.281Z,6.63
2019-05-14T05:33:04.828Z,6.73
2019-05-14T05:38:08.665Z,6.92
2019-05-14T05:43:13.076Z,7.12
2019-05-14T05:48:14.652Z,7.26
2019-05-14T05:53:16.191Z,7.42
2019-05-14T05:58:19.674Z,7.61
2019-05-14T06:03:21.380Z,7.84
2019-05-14T06:08:22.943Z,7.96
2019-05-14T06:13:24.452Z,8.07
2019-05-14T06:18:28.379Z,8.35
2019-05-14T06:23:29.469Z,8.52
2019-05-14T06:28:33.511Z,8.62
2019-05-14T06:33:34.462Z,8.76
2019-05-14T06:38:39.727Z,9.00
2019-05-14T06:43:41.326Z,9.11
2019-05-14T06:48:42.831Z,8.99
2019-05-14T06:53:44.382Z,8.96
2019-05-14T06:58:45.775Z,8.98
2019-05-14T07:03:49.048Z,8.98
2019-05-14T07:08:52.817Z,9.10
2019-05-14T07:13:54.243Z,9.27
2019-05-14T07:18:58.879Z,9.48
2019-05-14T07:24:00.006Z,9.78
2019-05-14T07:29:01.600Z,9.84
2019-05-14T07:34:03.144Z,10.06
2019-05-14T07:39:09.069Z,10.42
2019-05-14T07:44:09.356Z,10.54
2019-05-14T07:49:11.965Z,10.63
2019-05-14T07:54:13.693Z,11.10
2019-05-14T07:59:15.259Z,11.59
2019-05-14T08:04:19.751Z,11.86
2019-05-14T08:09:21.285Z,11.92
2019-05-14T08:14:22.813Z,12.46
2019-05-14T08:19:27.240Z,12.68
2019-05-14T08:24:30.135Z,13.17
2019-05-14T08:29:31.223Z,14.11
2019-05-14T08:34:32.753Z,14.45
2019-05-14T08:39:34.316Z,14.14
2019-05-14T08:44:35.838Z,14.69
2019-05-14T08:49:45.417Z,14.16
2019-05-14T08:54:40.826Z,14.02
2019-05-14T08:59:42.308Z,14.15
2019-05-14T09:04:44.142Z,13.84
2019-05-14T09:09:45.776Z,14.06
2019-05-14T09:14:48.303Z,14.67
2019-05-14T09:20:01.340Z,14.83
2019-05-14T09:24:53.484Z,14.94
2019-05-14T09:29:55.004Z,14.92
2019-05-14T09:34:58.794Z,15.21
2019-05-14T09:39:59.929Z,15.64
2019-05-14T09:45:01.420Z,15.57
2019-05-14T09:50:16.358Z,15.64
2019-05-14T09:55:09.156Z,15.44
2019-05-14T10:00:14.316Z,15.45
2019-05-14T10:05:14.573Z,15.42
2019-05-14T10:10:19.386Z,15.37
2019-05-14T10:15:19.735Z,15.76
2019-05-14T10:20:36.736Z,16.49
2019-05-14T10:25:24.894Z,16.82
2019-05-14T10:30:28.549Z,17.12
2019-05-14T10:35:29.970Z,17.66
2019-05-14T10:40:31.665Z,17.70
2019-05-14T10:45:33.341Z,17.33
2019-05-14T10:50:44.897Z,17.68
2019-05-14T10:55:38.810Z,18.05
2019-05-14T11:00:41.877Z,18.46
2019-05-14T11:05:43.809Z,18.36
2019-05-14T11:10:45.348Z,17.53
2019-05-14T11:15:48.685Z,17.80
2019-05-14T11:20:51.565Z,17.70
2019-05-14T11:25:53.405Z,17.65
2019-05-14T11:30:54.695Z,17.79
2019-05-14T11:35:58.509Z,17.57
2019-05-14T11:40:59.584Z,17.43
2019-05-14T11:46:01.059Z,17.69
2019-05-14T11:51:02.620Z,18.31
2019-05-14T11:56:04.155Z,18.58
2019-05-14T12:01:05.701Z,18.69
2019-05-14T12:06:09.888Z,18.82
2019-05-14T12:11:10.614Z,18.72
2019-05-14T12:16:12.138Z,19.02
2019-05-14T12:21:13.589Z,19.14
2019-05-14T12:26:15.105Z,19.09
2019-05-14T12:31:16.756Z,19.24
2019-05-14T12:36:19.393Z,19.57
2019-05-14T12:41:21.177Z,19.68
2019-05-14T12:46:22.830Z,19.61
2019-05-14T12:51:24.305Z,19.69
2019-05-14T12:56:25.899Z,19.61
2019-05-14T13:01:27.375Z,19.28
2019-05-14T13:06:29.490Z,19.37
2019-05-14T13:11:31.136Z,19.45
2019-05-14T13:16:32.719Z,19.46
2019-05-14T13:21:34.140Z,19.93
2019-05-14T13:26:35.666Z,20.17
2019-05-14T13:31:37.219Z,20.44
2019-05-14T13:36:40.114Z,20.80
2019-05-14T13:41:42.191Z,20.79
2019-05-14T13:46:43.796Z,20.66
2019-05-14T13:51:45.346Z,20.60
2019-05-14T13:56:48.388Z,20.31
2019-05-14T14:01:54.810Z,20.39
2019-05-14T14:06:55.938Z,20.94
2019-05-14T14:11:58.793Z,21.14
2019-05-14T14:17:00.395Z,21.26
2019-05-14T14:22:01.951Z,21.13
2019-05-14T14:27:03.502Z,21.33
2019-05-14T14:32:05.086Z,21.25
2019-05-14T14:37:08.906Z,21.14
2019-05-14T14:42:10.238Z,21.62
2019-05-14T14:47:12.829Z,21.81
2019-05-14T14:52:14.325Z,22.01
2019-05-14T14:57:19.546Z,21.90
2019-05-14T15:02:19.877Z,21.83
2019-05-14T15:07:22.656Z,21.78
2019-05-14T15:12:24.280Z,21.99
2019-05-14T15:17:25.874Z,21.79
2019-05-14T15:22:31.201Z,21.42
2019-05-14T15:27:33.008Z,21.31
2019-05-14T15:32:34.501Z,21.06
2019-05-14T15:37:36.067Z,20.83
2019-05-14T15:42:39.504Z,20.79
2019-05-14T15:47:41.207Z,20.93
2019-05-14T15:52:42.840Z,20.77
2019-05-14T15:57:44.450Z,21.22
2019-05-14T16:02:45.967Z,21.34
2019-05-14T16:07:49.433Z,21.17
2019-05-14T16:12:50.953Z,20.81
2019-05-14T16:18:06.118Z,20.67
2019-05-14T16:22:55.801Z,20.98
2019-05-14T16:27:59.302Z,21.10
2019-05-14T16:33:01.781Z,20.97
2019-05-14T16:38:03.298Z,21.15
2019-05-14T16:43:04.919Z,21.91
2019-05-14T16:48:10.539Z,21.64
2019-05-14T16:53:11.576Z,21.60
2019-05-14T16:58:13.373Z,21.57
2019-05-14T17:03:14.910Z,21.46
2019-05-14T17:08:19.006Z,21.27
2019-05-14T17:13:19.855Z,21.18
2019-05-14T17:18:21.426Z,20.85
2019-05-14T17:23:23.046Z,20.73
2019-05-14T17:28:24.847Z,20.62
2019-05-14T17:33:26.321Z,20.37
2019-05-14T17:38:29.242Z,20.26
2019-05-14T17:43:30.918Z,20.20
2019-05-14T17:48:32.483Z,20.37
2019-05-14T17:53:33.968Z,20.07
2019-05-14T17:58:35.567Z,19.86
2019-05-14T18:03:39.678Z,19.64
2019-05-14T18:08:40.654Z,19.56
2019-05-14T18:13:42.205Z,19.34
2019-05-14T18:18:43.785Z,19.21
2019-05-14T18:23:45.274Z,18.94
2019-05-14T18:28:46.839Z,18.63
2019-05-14T18:33:49.183Z,18.41
2019-05-14T18:38:51.130Z,18.17
2019-05-14T18:43:52.651Z,17.87
2019-05-14T18:48:54.236Z,17.44
2019-05-14T18:53:55.826Z,17.12
2019-05-14T18:58:57.410Z,16.82
2019-05-14T19:03:59.119Z,16.58
2019-05-14T19:09:00.648Z,16.30
2019-05-14T19:14:02.079Z,16.10
2019-05-14T19:19:03.726Z,15.81
2019-05-14T19:24:05.441Z,15.59
2019-05-14T19:29:08.726Z,15.34
2019-05-14T19:34:10.369Z,15.09
2019-05-14T19:39:11.889Z,14.92
2019-05-14T19:44:13.428Z,14.74
2019-05-14T19:49:15.173Z,14.44
2019-05-14T19:54:19.480Z,14.20
2019-05-14T19:59:20.131Z,13.92
2019-05-14T20:04:21.641Z,13.79
2019-05-14T20:09:23.219Z,13.68
2019-05-14T20:14:24.821Z,13.53
2019-05-14T20:19:28.561Z,13.34
2019-05-14T20:24:29.702Z,13.22
2019-05-14T20:29:31.346Z,13.07
2019-05-14T20:34:32.762Z,12.94
2019-05-14T20:39:34.399Z,12.77
2019-05-14T20:44:38.448Z,12.59
2019-05-14T20:49:39.326Z,12.45
2019-05-14T20:54:40.742Z,12.33
2019-05-14T20:59:42.110Z,12.23
2019-05-14T21:04:43.690Z,12.15
2019-05-14T21:09:45.239Z,12.05
2019-05-14T21:14:49.112Z,11.93
2019-05-14T21:19:50.230Z,11.80
2019-05-14T21:24:53.305Z,11.69
2019-05-14T21:29:55.117Z,11.57
2019-05-14T21:34:58.515Z,11.46
2019-05-14T21:40:00.124Z,11.39
2019-05-14T21:45:01.729Z,11.33
2019-05-14T21:50:03.847Z,11.25
2019-05-14T21:55:05.435Z,11.18
2019-05-14T22:00:09.526Z,11.14
2019-05-14T22:05:11.005Z,11.07
2019-05-14T22:10:12.543Z,11.02
2019-05-14T22:15:14.102Z,10.93
2019-05-14T22:20:15.652Z,10.83
2019-05-14T22:25:19.009Z,10.75
2019-05-14T22:30:20.587Z,10.70
2019-05-14T22:35:22.136Z,10.64
2019-05-14T22:40:23.598Z,10.59
2019-05-14T22:45:25.190Z,10.52
2019-05-14T22:50:29.182Z,10.44
2019-05-14T22:55:31.413Z,10.38
2019-05-14T23:00:33.101Z,10.33
2019-05-14T23:05:34.645Z,10.26
2019-05-14T23:10:36.053Z,10.22
2019-05-14T23:15:38.508Z,10.15
2019-05-14T23:20:40.190Z,10.11
2019-05-14T23:25:41.748Z,10.06
2019-05-14T23:30:43.296Z,9.99
2019-05-14T23:35:44.825Z,9.96
2019-05-14T23:40:46.296Z,9.90
2019-05-14T23:45:48.857Z,9.84
2019-05-14T23:50:50.272Z,9.77
2019-05-14T23:55:51.827Z,9.70
